createdAt,value
2022-10-11T00:00:39.029Z,8.83
2022-10-11T00:03:16.873Z,7.65
2022-10-11T00:05:55.226Z,10.65
2022-10-11T00:08:34.094Z,14.68
2022-10-11T00:11:11.532Z,8.30
2022-10-11T00:13:49.679Z,7.25
2022-10-11T00:16:28.330Z,11.07
2022-10-11T00:19:04.743Z,9.10
2022-10-11T00:21:43.415Z,7.95
2022-10-11T00:24:21.079Z,9.48
2022-10-11T00:27:00.340Z,7.82
2022-10-11T00:29:41.060Z,11.05
2022-10-11T00:32:18.854Z,6.73
2022-10-11T00:34:59.811Z,8.40
2022-10-11T00:37:39.328Z,11.23
2022-10-11T00:40:20.631Z,7.63
2022-10-11T00:42:58.118Z,10.48
2022-10-11T00:45:36.336Z,10.65
2022-10-11T00:48:23.495Z,8.70
2022-10-11T00:51:08.065Z,7.50
2022-10-11T00:53:49.306Z,10.97
2022-10-11T00:56:31.632Z,10.10
2022-10-11T00:59:17.089Z,8.57
2022-10-11T01:01:56.774Z,9.63
2022-10-11T01:04:36.009Z,9.13
2022-10-11T01:07:14.163Z,8.15
2022-10-11T01:09:52.169Z,8.65
2022-10-11T01:12:31.787Z,8.07
2022-10-11T01:15:18.651Z,9.33
2022-10-11T01:18:25.811Z,10.33
2022-10-11T01:21:18.082Z,7.82
2022-10-11T01:24:08.851Z,8.10
2022-10-11T01:27:08.325Z,12.35
2022-10-11T01:30:34.422Z,8.75
2022-10-11T01:33:30.882Z,8.98
2022-10-11T01:36:28.221Z,9.48
2022-10-11T01:39:13.386Z,8.00
2022-10-11T01:42:20.244Z,10.55
2022-10-11T01:44:59.514Z,8.98
2022-10-11T01:47:39.151Z,10.80
2022-10-11T01:50:41.901Z,9.38
2022-10-11T01:53:29.566Z,11.33
2022-10-11T01:56:39.607Z,7.95
2022-10-11T01:59:45.415Z,9.50
2022-10-11T02:02:37.154Z,9.20
2022-10-11T02:05:27.432Z,7.53
2022-10-11T02:08:26.812Z,9.45
2022-10-11T02:11:18.265Z,9.18
2022-10-11T02:14:06.263Z,7.68
2022-10-11T02:16:54.906Z,9.98
2022-10-11T02:19:38.741Z,9.07
2022-10-11T02:22:26.502Z,10.05
2022-10-11T02:25:09.491Z,9.43
2022-10-11T02:27:48.822Z,10.25
2022-10-11T02:30:27.039Z,8.25
2022-10-11T02:33:08.668Z,8.82
2022-10-11T02:35:53.908Z,6.93
2022-10-11T02:38:41.056Z,9.90
2022-10-11T02:41:31.262Z,8.65
2022-10-11T02:44:16.308Z,9.57
2022-10-11T02:46:55.716Z,11.60
2022-10-11T02:49:33.297Z,8.63
2022-10-11T02:52:11.269Z,9.00
2022-10-11T02:54:50.961Z,8.82
2022-10-11T02:57:29.709Z,8.50
2022-10-11T03:00:09.110Z,13.80
2022-10-11T03:02:48.362Z,7.95
2022-10-11T03:05:26.942Z,10.82
2022-10-11T03:08:05.316Z,8.35
2022-10-11T03:10:44.463Z,8.90
2022-10-11T03:13:23.156Z,9.82
2022-10-11T03:16:11.994Z,11.93
2022-10-11T03:18:50.042Z,7.18
2022-10-11T03:21:28.235Z,9.17
2022-10-11T03:24:06.685Z,10.98
2022-10-11T03:26:44.752Z,12.20
2022-10-11T03:29:22.719Z,10.30
2022-10-11T03:32:03.149Z,8.43
2022-10-11T03:34:40.869Z,9.40
2022-10-11T03:37:20.242Z,9.15
2022-10-11T03:39:58.673Z,14.10
2022-10-11T03:42:39.162Z,12.15
2022-10-11T03:45:17.879Z,9.73
2022-10-11T03:47:56.552Z,9.35
2022-10-11T03:50:36.496Z,16.02
2022-10-11T03:53:15.617Z,13.00
2022-10-11T03:55:55.746Z,11.50
2022-10-11T03:58:35.991Z,11.45
2022-10-11T04:01:14.479Z,13.87
2022-10-11T04:03:55.913Z,11.05
2022-10-11T04:06:34.407Z,9.07
2022-10-11T04:09:12.315Z,12.18
2022-10-11T04:11:53.331Z,9.85
2022-10-11T04:14:32.549Z,9.73
2022-10-11T04:17:11.702Z,12.82
2022-10-11T04:19:50.244Z,15.07
2022-10-11T04:22:42.306Z,9.02
2022-10-11T04:25:22.003Z,6.95
2022-10-11T04:28:01.892Z,10.03
2022-10-11T04:30:40.667Z,9.10
2022-10-11T04:33:19.820Z,8.88
2022-10-11T04:35:58.581Z,15.02
2022-10-11T04:38:36.879Z,13.05
2022-10-11T04:41:16.774Z,10.35
2022-10-11T04:43:54.934Z,10.25
2022-10-11T04:46:33.046Z,11.85
2022-10-11T04:49:12.044Z,14.80
2022-10-11T04:51:51.207Z,14.35
2022-10-11T04:54:30.494Z,15.70
2022-10-11T04:57:09.073Z,12.80
2022-10-11T04:59:50.141Z,11.27
2022-10-11T05:02:28.856Z,15.03
2022-10-11T05:05:10.567Z,9.43
2022-10-11T05:08:01.791Z,13.50
2022-10-11T05:10:40.142Z,9.43
2022-10-11T05:13:18.788Z,9.80
2022-10-11T05:16:11.862Z,11.60
2022-10-11T05:18:52.578Z,9.85
2022-10-11T05:21:36.253Z,10.20
2022-10-11T05:24:15.422Z,10.25
2022-10-11T05:26:54.476Z,10.32
2022-10-11T05:29:32.145Z,10.43
2022-10-11T05:32:13.059Z,9.27
2022-10-11T05:34:52.783Z,13.87
2022-10-11T05:37:31.975Z,9.30
2022-10-11T05:40:13.301Z,9.50
2022-10-11T05:42:50.973Z,10.95
2022-10-11T05:45:29.348Z,9.38
2022-10-11T05:48:08.233Z,11.35
2022-10-11T05:50:48.425Z,10.40
2022-10-11T05:53:27.292Z,13.68
2022-10-11T05:56:23.314Z,11.23
2022-10-11T05:59:02.491Z,12.27
2022-10-11T06:01:45.216Z,12.80
2022-10-11T06:04:24.011Z,12.55
2022-10-11T06:07:02.181Z,14.50
2022-10-11T06:09:40.424Z,13.23
2022-10-11T06:12:19.006Z,13.57
2022-10-11T06:15:28.667Z,13.90
2022-10-11T06:18:28.538Z,8.77
2022-10-11T06:21:24.154Z,12.85
2022-10-11T06:24:15.923Z,11.05
2022-10-11T06:27:26.376Z,12.53
2022-10-11T06:30:30.304Z,12.93
2022-10-11T06:33:26.002Z,12.40
2022-10-11T06:36:24.038Z,11.43
2022-10-11T06:39:15.761Z,15.20
2022-10-11T06:42:13.657Z,13.10
2022-10-11T06:45:09.282Z,10.65
2022-10-11T06:48:06.018Z,11.13
2022-10-11T06:51:30.394Z,9.73
2022-10-11T06:54:26.201Z,16.65
2022-10-11T06:57:17.582Z,6.90
2022-10-11T07:00:25.304Z,9.77
2022-10-11T07:03:20.010Z,5.15
2022-10-11T07:06:19.741Z,8.63
2022-10-11T07:09:21.005Z,9.18
2022-10-11T07:12:17.223Z,10.65
2022-10-11T07:15:14.381Z,9.02
2022-10-11T07:18:10.542Z,8.60
2022-10-11T07:21:05.877Z,8.57
2022-10-11T07:24:03.563Z,7.68
2022-10-11T07:27:10.110Z,8.75
2022-10-11T07:30:06.116Z,9.30
2022-10-11T07:33:04.566Z,7.35
2022-10-11T07:35:58.546Z,7.82
2022-10-11T07:42:10.043Z,9.00
2022-10-11T07:45:09.530Z,10.55
2022-10-11T07:48:04.688Z,8.45
2022-10-11T07:51:16.554Z,10.18
2022-10-11T07:54:20.574Z,8.93
2022-10-11T07:57:22.316Z,7.38
2022-10-11T08:00:29.458Z,7.35
2022-10-11T08:03:43.287Z,5.70
2022-10-11T08:06:43.380Z,8.25
2022-10-11T08:09:49.908Z,13.37
2022-10-11T08:12:47.801Z,6.55
2022-10-11T08:15:43.540Z,10.80
2022-10-11T08:18:44.325Z,7.05
2022-10-11T08:21:39.700Z,8.85
2022-10-11T08:24:42.506Z,7.95
2022-10-11T08:27:40.744Z,6.78
2022-10-11T08:30:37.274Z,6.22
2022-10-11T08:33:33.026Z,7.78
2022-10-11T08:36:40.805Z,6.40
2022-10-11T08:39:48.950Z,5.65
2022-10-11T08:43:08.418Z,8.20
2022-10-11T08:46:12.365Z,8.97
2022-10-11T08:49:09.835Z,8.27
2022-10-11T08:52:07.915Z,6.15
2022-10-11T08:54:46.228Z,7.77
2022-10-11T08:57:42.967Z,7.00
2022-10-11T09:00:15.545Z,7.57
2022-10-11T09:03:19.815Z,7.22
2022-10-11T09:06:13.567Z,7.63
2022-10-11T09:09:18.926Z,9.60
2022-10-11T09:12:14.637Z,7.75
2022-10-11T09:15:21.382Z,10.60
2022-10-11T09:18:27.578Z,5.68
2022-10-11T09:21:16.555Z,7.47
2022-10-11T09:24:21.050Z,6.32
2022-10-11T09:27:02.789Z,8.45
2022-10-11T09:29:54.617Z,7.37
2022-10-11T09:32:31.408Z,7.68
2022-10-11T09:35:15.970Z,6.95
2022-10-11T09:37:56.109Z,8.65
2022-10-11T09:40:53.865Z,9.70
2022-10-11T09:43:24.877Z,9.07
2022-10-11T09:45:52.899Z,7.57
2022-10-11T09:48:27.758Z,6.38
2022-10-11T09:51:05.341Z,7.07
2022-10-11T09:53:53.062Z,6.38
2022-10-11T09:56:25.520Z,8.20
2022-10-11T09:59:48.477Z,8.15
2022-10-11T10:02:24.602Z,6.88
2022-10-11T10:04:57.643Z,7.97
2022-10-11T10:07:39.587Z,8.65
2022-10-11T10:10:25.395Z,5.33
2022-10-11T10:13:00.665Z,6.00
2022-10-11T10:15:34.574Z,5.85
2022-10-11T10:18:02.917Z,8.02
2022-10-11T10:20:35.429Z,8.75
2022-10-11T10:23:20.752Z,6.13
2022-10-11T10:25:52.301Z,7.22
2022-10-11T10:28:21.423Z,8.57
2022-10-11T10:31:01.799Z,7.55
2022-10-11T10:33:34.850Z,6.22
2022-10-11T10:36:18.998Z,10.67
2022-10-11T10:38:56.418Z,7.45
2022-10-11T10:41:23.342Z,6.18
2022-10-11T10:43:55.675Z,7.68
2022-10-11T10:46:51.796Z,7.78
2022-10-11T10:49:54.078Z,5.70
2022-10-11T10:52:48.047Z,7.97
2022-10-11T10:55:39.894Z,6.57
2022-10-11T10:59:00.479Z,8.65
2022-10-11T11:01:30.901Z,5.70
2022-10-11T11:04:26.971Z,6.27
2022-10-11T11:07:22.541Z,6.40
2022-10-11T11:09:59.055Z,8.38
2022-10-11T11:12:46.467Z,5.97
2022-10-11T11:15:19.770Z,5.82
2022-10-11T11:18:28.591Z,5.90
2022-10-11T11:21:30.436Z,6.80
2022-10-11T11:24:13.555Z,8.38
2022-10-11T11:27:12.787Z,5.47
2022-10-11T11:30:05.187Z,5.00
2022-10-11T11:32:32.265Z,9.90
2022-10-11T11:35:10.007Z,7.05
2022-10-11T11:37:44.547Z,7.00
2022-10-11T11:40:31.587Z,5.35
2022-10-11T11:43:11.467Z,4.32
2022-10-11T11:45:55.122Z,4.37
2022-10-11T11:48:25.254Z,6.68
2022-10-11T11:51:17.847Z,4.60
2022-10-11T11:54:06.592Z,5.40
2022-10-11T11:56:57.202Z,4.55
2022-10-11T12:00:10.036Z,6.23
2022-10-11T12:03:08.297Z,6.70
2022-10-11T12:05:36.392Z,7.75
2022-10-11T12:08:03.580Z,9.00
2022-10-11T12:10:40.095Z,7.32
2022-10-11T12:13:19.944Z,7.50
2022-10-11T12:16:14.666Z,10.65
2022-10-11T12:19:13.595Z,6.80
2022-10-11T12:22:27.754Z,5.15
2022-10-11T12:25:21.990Z,5.25
2022-10-11T12:27:53.080Z,6.83
2022-10-11T12:30:49.405Z,7.18
2022-10-11T12:33:38.332Z,7.60
2022-10-11T12:36:43.906Z,7.18
2022-10-11T12:39:22.961Z,8.40
2022-10-11T12:41:50.102Z,10.37
2022-10-11T12:44:27.777Z,9.38
2022-10-11T12:47:00.822Z,6.72
2022-10-11T12:49:36.857Z,7.32
2022-10-11T12:52:49.060Z,10.98
2022-10-11T12:55:46.147Z,5.93
2022-10-11T12:58:26.331Z,10.10
2022-10-11T13:00:55.335Z,8.25
2022-10-11T13:03:34.778Z,5.72
2022-10-11T13:06:25.921Z,7.50
2022-10-11T13:08:59.577Z,7.27
2022-10-11T13:11:35.004Z,6.55
2022-10-11T13:14:19.543Z,5.93
2022-10-11T13:17:00.152Z,8.25
2022-10-11T13:19:29.057Z,7.53
2022-10-11T13:22:02.908Z,6.80
2022-10-11T13:24:37.999Z,9.27
2022-10-11T13:27:07.633Z,7.28
2022-10-11T13:29:41.394Z,6.93
2022-10-11T13:32:18.043Z,9.63
2022-10-11T13:34:49.818Z,6.27
2022-10-11T13:37:19.987Z,7.07
2022-10-11T13:39:51.505Z,8.10
2022-10-11T13:42:19.952Z,5.72
2022-10-11T13:44:47.732Z,8.23
2022-10-11T13:47:18.443Z,9.53
2022-10-11T13:49:48.405Z,8.55
2022-10-11T13:52:18.042Z,6.18
2022-10-11T13:55:00.763Z,8.80
2022-10-11T13:57:36.804Z,7.40
2022-10-11T14:00:53.225Z,7.07
2022-10-11T14:03:21.955Z,9.75
2022-10-11T14:06:00.165Z,8.05
2022-10-11T14:08:50.356Z,7.63
2022-10-11T14:11:35.054Z,9.10
2022-10-11T14:14:38.070Z,7.43
2022-10-11T14:17:10.835Z,8.88
2022-10-11T14:19:38.211Z,7.63
2022-10-11T14:22:07.442Z,6.00
2022-10-11T14:24:34.441Z,12.10
2022-10-11T14:27:06.012Z,6.37
2022-10-11T14:29:39.669Z,7.70
2022-10-11T14:32:10.940Z,6.93
2022-10-11T14:34:38.251Z,8.57
2022-10-11T14:37:05.317Z,8.65
2022-10-11T14:39:33.363Z,8.97
2022-10-11T14:42:03.799Z,10.38
2022-10-11T14:44:30.841Z,11.27
2022-10-11T14:46:58.024Z,7.85
2022-10-11T14:49:27.308Z,20.98
2022-10-11T14:51:56.767Z,9.13
2022-10-11T14:54:26.373Z,8.00
2022-10-11T14:56:55.458Z,8.45
2022-10-11T14:59:28.337Z,10.77
2022-10-11T15:01:55.465Z,11.32
2022-10-11T15:04:25.375Z,7.23
2022-10-11T15:06:54.801Z,7.97
2022-10-11T15:09:22.886Z,11.63
2022-10-11T15:11:51.713Z,10.52
2022-10-11T15:14:18.726Z,12.30
2022-10-11T15:16:45.820Z,11.67
2022-10-11T15:19:19.033Z,12.40
2022-10-11T15:21:46.663Z,12.10
2022-10-11T15:24:14.506Z,11.40
2022-10-11T15:26:42.492Z,9.63
2022-10-11T15:29:11.896Z,15.20
2022-10-11T15:31:39.748Z,10.95
2022-10-11T15:34:07.024Z,11.30
2022-10-11T15:36:34.915Z,15.18
2022-10-11T15:39:02.358Z,21.63
2022-10-11T15:41:32.030Z,10.00
2022-10-11T15:43:59.592Z,9.40
2022-10-11T15:46:41.420Z,14.10
2022-10-11T15:49:14.787Z,11.10
2022-10-11T15:51:41.978Z,10.68
2022-10-11T15:54:09.387Z,9.70
2022-10-11T15:56:36.466Z,9.50
2022-10-11T15:59:03.900Z,9.20
2022-10-11T16:01:31.122Z,9.10
2022-10-11T16:03:58.346Z,12.07
2022-10-11T16:06:25.418Z,11.97
2022-10-11T16:08:52.722Z,10.63
2022-10-11T16:11:19.801Z,12.85
2022-10-11T16:13:47.697Z,12.43
2022-10-11T16:16:14.966Z,10.32
2022-10-11T16:18:42.382Z,8.93
2022-10-11T16:21:14.735Z,12.85
2022-10-11T16:23:42.124Z,9.90
2022-10-11T16:26:13.695Z,10.45
2022-10-11T16:28:42.094Z,13.07
2022-10-11T16:31:11.925Z,18.47
2022-10-11T16:33:48.171Z,10.32
2022-10-11T16:36:37.102Z,13.68
2022-10-11T16:39:12.362Z,10.07
2022-10-11T16:41:39.916Z,12.70
2022-10-11T16:44:11.767Z,12.40
2022-10-11T16:46:38.841Z,12.32
2022-10-11T16:49:06.400Z,13.40
2022-10-11T16:51:34.336Z,10.88
2022-10-11T16:54:01.411Z,13.68
2022-10-11T16:56:30.036Z,11.70
2022-10-11T16:58:59.344Z,11.90
2022-10-11T17:01:26.695Z,11.73
2022-10-11T17:03:54.001Z,17.13
2022-10-11T17:06:21.081Z,8.57
2022-10-11T17:08:48.232Z,9.83
2022-10-11T17:11:19.000Z,11.45
2022-10-11T17:13:48.263Z,18.52
2022-10-11T17:16:16.597Z,10.73
2022-10-11T17:18:44.009Z,18.58
2022-10-11T17:21:16.484Z,14.57
2022-10-11T17:23:44.205Z,13.65
2022-10-11T17:26:18.917Z,11.60
2022-10-11T17:28:46.550Z,12.70
2022-10-11T17:31:16.357Z,12.27
2022-10-11T17:33:43.363Z,18.37
2022-10-11T17:36:17.963Z,12.82
2022-10-11T17:38:45.598Z,12.82
2022-10-11T17:41:15.980Z,16.30
2022-10-11T17:43:43.617Z,20.42
2022-10-11T17:46:12.572Z,22.47
2022-10-11T17:48:39.780Z,20.70
2022-10-11T17:51:12.036Z,17.33
2022-10-11T17:53:39.557Z,15.95
2022-10-11T17:56:17.594Z,18.75
2022-10-11T17:58:47.517Z,15.73
2022-10-11T18:01:19.903Z,15.57
2022-10-11T18:03:57.178Z,18.50
2022-10-11T18:06:26.805Z,18.45
2022-10-11T18:08:53.889Z,19.80
2022-10-11T18:11:22.054Z,17.83
2022-10-11T18:13:52.061Z,16.27
2022-10-11T18:16:30.332Z,20.00
2022-10-11T18:18:59.111Z,15.65
2022-10-11T18:21:31.347Z,15.55
2022-10-11T18:24:02.713Z,15.83
2022-10-11T18:26:30.923Z,12.85
2022-10-11T18:28:58.945Z,15.90
2022-10-11T18:31:33.791Z,13.60
2022-10-11T18:34:05.040Z,12.50
2022-10-11T18:36:33.564Z,15.07
2022-10-11T18:39:04.215Z,15.43
2022-10-11T18:41:32.770Z,17.58
2022-10-11T18:44:02.497Z,13.25
2022-10-11T18:46:29.743Z,15.73
2022-10-11T18:48:58.722Z,15.60
2022-10-11T18:51:33.564Z,14.07
2022-10-11T18:56:42.136Z,12.50
2022-10-11T18:59:13.416Z,17.88
2022-10-11T19:01:57.551Z,15.17
2022-10-11T19:04:28.667Z,15.00
2022-10-11T19:07:01.365Z,12.73
2022-10-11T19:09:29.012Z,16.40
2022-10-11T19:12:01.179Z,15.02
2022-10-11T19:14:30.268Z,11.67
2022-10-11T19:16:57.904Z,12.55
2022-10-11T19:19:29.179Z,14.25
2022-10-11T19:21:56.616Z,13.18
2022-10-11T19:24:26.757Z,12.80
2022-10-11T19:26:57.367Z,13.80
2022-10-11T19:29:40.061Z,14.90
2022-10-11T19:32:07.155Z,13.90
2022-10-11T19:34:34.520Z,16.75
2022-10-11T19:37:03.685Z,14.05
2022-10-11T19:39:31.046Z,13.57
2022-10-11T19:42:01.112Z,14.57
2022-10-11T19:44:28.349Z,14.50
2022-10-11T19:47:04.198Z,21.63
2022-10-11T19:49:32.646Z,18.83
2022-10-11T19:52:01.181Z,14.07
2022-10-11T19:54:30.654Z,15.88
2022-10-11T19:56:57.795Z,20.38
2022-10-11T19:59:25.354Z,14.82
2022-10-11T20:01:53.429Z,17.75
2022-10-11T20:04:47.446Z,24.50
2022-10-11T20:07:14.546Z,15.48
2022-10-11T20:09:41.553Z,19.05
2022-10-11T20:12:08.809Z,19.73
2022-10-11T20:14:35.989Z,15.48
2022-10-11T20:17:05.467Z,19.03
2022-10-11T20:19:34.906Z,16.08
2022-10-11T20:22:02.109Z,13.48
2022-10-11T20:24:35.548Z,15.27
2022-10-11T20:27:27.396Z,15.13
2022-10-11T20:29:54.627Z,16.70
2022-10-11T20:32:21.673Z,15.27
2022-10-11T20:34:48.677Z,14.90
2022-10-11T20:37:15.758Z,15.13
2022-10-11T20:39:42.941Z,12.73
2022-10-11T20:42:10.194Z,15.23
2022-10-11T20:44:37.221Z,13.88
2022-10-11T20:47:04.440Z,13.98
2022-10-11T20:49:31.713Z,15.70
2022-10-11T20:51:58.801Z,17.90
2022-10-11T20:54:25.985Z,18.80
2022-10-11T20:56:53.008Z,19.15
2022-10-11T20:59:20.084Z,15.15
2022-10-11T21:01:47.511Z,16.30
2022-10-11T21:04:18.898Z,14.07
2022-10-11T21:06:48.055Z,18.57
2022-10-11T21:09:17.013Z,13.23
2022-10-11T21:11:44.522Z,13.15
2022-10-11T21:14:11.653Z,14.35
2022-10-11T21:16:38.591Z,15.15
2022-10-11T21:19:08.874Z,13.90
2022-10-11T21:21:36.216Z,16.00
2022-10-11T21:24:04.378Z,18.17
2022-10-11T21:26:31.593Z,16.90
2022-10-11T21:29:04.009Z,16.30
2022-10-11T21:31:34.278Z,15.73
2022-10-11T21:34:02.600Z,17.45
2022-10-11T21:36:29.724Z,13.93
2022-10-11T21:38:56.783Z,17.25
2022-10-11T21:41:30.230Z,18.42
2022-10-11T21:43:58.443Z,16.47
2022-10-11T21:47:01.156Z,15.73
2022-10-11T21:49:16.583Z,14.88
2022-10-11T21:51:43.661Z,20.10
2022-10-11T21:54:10.694Z,14.38
2022-10-11T21:56:41.272Z,15.20
2022-10-11T21:59:11.243Z,13.63
2022-10-11T22:01:43.269Z,14.80
2022-10-11T22:04:11.246Z,15.40
2022-10-11T22:06:39.066Z,15.63
2022-10-11T22:09:07.753Z,21.43
2022-10-11T22:11:35.361Z,17.85
2022-10-11T22:14:04.069Z,13.18
2022-10-11T22:16:33.910Z,14.68
2022-10-11T22:19:01.072Z,16.05
2022-10-11T22:21:28.219Z,17.67
2022-10-11T22:23:57.715Z,13.60
2022-10-11T22:26:27.738Z,18.63
2022-10-11T22:28:54.791Z,14.90
2022-10-11T22:31:22.505Z,13.35
2022-10-11T22:33:53.576Z,16.07
2022-10-11T22:36:20.938Z,15.15
2022-10-11T22:38:47.882Z,20.20
2022-10-11T22:41:15.014Z,15.93
2022-10-11T22:43:42.060Z,15.40
2022-10-11T22:46:09.898Z,18.20
2022-10-11T22:48:37.577Z,16.55
2022-10-11T22:51:06.841Z,12.63
2022-10-11T22:53:34.237Z,13.50
2022-10-11T22:56:01.530Z,18.15
2022-10-11T22:58:28.655Z,14.77
2022-10-11T23:01:00.286Z,14.18
2022-10-11T23:03:27.462Z,20.23
2022-10-11T23:05:58.163Z,18.35
2022-10-11T23:08:25.802Z,16.65
2022-10-11T23:10:53.003Z,15.30
2022-10-11T23:13:22.893Z,17.63
2022-10-11T23:15:49.998Z,15.75
2022-10-11T23:18:16.982Z,15.52
2022-10-11T23:20:51.361Z,17.45
2022-10-11T23:23:23.148Z,15.43
2022-10-11T23:26:00.569Z,16.38
2022-10-11T23:28:27.782Z,15.23
2022-10-11T23:30:54.827Z,15.48
2022-10-11T23:33:21.841Z,21.10
2022-10-11T23:35:48.689Z,16.43
2022-10-11T23:38:15.725Z,15.05
2022-10-11T23:40:42.940Z,18.10
2022-10-11T23:43:10.016Z,16.90
2022-10-11T23:45:37.182Z,19.77
2022-10-11T23:48:04.801Z,20.07
2022-10-11T23:50:31.793Z,15.85
2022-10-11T23:52:58.893Z,17.58
2022-10-11T23:55:26.010Z,17.00
2022-10-11T23:57:53.094Z,19.52
